createdAt,value
2022-07-31T00:00:22.649Z,5.20
2022-07-31T00:02:50.479Z,4.33
2022-07-31T00:05:18.073Z,4.60
2022-07-31T00:07:45.610Z,4.73
2022-07-31T00:10:13.286Z,4.33
2022-07-31T00:12:42.338Z,5.43
2022-07-31T00:15:11.125Z,4.53
2022-07-31T00:17:38.655Z,5.10
2022-07-31T00:20:07.717Z,4.60
2022-07-31T00:22:36.480Z,4.43
2022-07-31T00:25:04.492Z,5.67
2022-07-31T00:27:32.096Z,3.73
2022-07-31T00:30:00.953Z,5.97
2022-07-31T00:32:28.593Z,4.17
2022-07-31T00:34:56.196Z,4.07
2022-07-31T00:37:24.521Z,4.53
2022-07-31T00:39:52.023Z,5.37
2022-07-31T00:42:20.341Z,4.67
2022-07-31T00:44:48.621Z,5.00
2022-07-31T00:47:18.382Z,5.00
2022-07-31T00:49:52.016Z,5.23
2022-07-31T00:52:19.534Z,4.97
2022-07-31T00:54:47.125Z,5.17
2022-07-31T00:57:15.198Z,4.43
2022-07-31T00:59:43.659Z,3.83
2022-07-31T01:02:12.173Z,5.13
2022-07-31T01:04:41.835Z,4.50
2022-07-31T01:07:12.205Z,3.80
2022-07-31T01:09:39.809Z,4.60
2022-07-31T01:12:14.575Z,4.87
2022-07-31T01:14:48.953Z,4.30
2022-07-31T01:17:18.803Z,4.57
2022-07-31T01:19:49.441Z,5.80
2022-07-31T01:22:39.705Z,6.10
2022-07-31T01:25:12.814Z,4.70
2022-07-31T01:28:01.982Z,5.97
2022-07-31T01:30:36.224Z,4.87
2022-07-31T01:33:09.363Z,5.00
2022-07-31T01:35:43.248Z,4.57
2022-07-31T01:38:13.898Z,5.20
2022-07-31T01:40:45.157Z,6.00
2022-07-31T01:43:15.762Z,5.30
2022-07-31T01:45:48.327Z,4.93
2022-07-31T01:48:17.103Z,4.43
2022-07-31T01:50:47.182Z,5.40
2022-07-31T01:53:17.142Z,4.97
2022-07-31T01:56:02.537Z,4.33
2022-07-31T01:58:35.993Z,4.80
2022-07-31T02:01:11.335Z,6.20
2022-07-31T02:03:43.920Z,4.90
2022-07-31T02:06:16.997Z,5.37
2022-07-31T02:08:47.006Z,5.63
2022-07-31T02:11:18.841Z,5.47
2022-07-31T02:13:48.046Z,6.33
2022-07-31T02:16:19.222Z,5.87
2022-07-31T02:18:51.001Z,5.20
2022-07-31T02:21:30.047Z,5.30
2022-07-31T02:23:57.969Z,4.90
2022-07-31T02:26:28.443Z,4.60
2022-07-31T02:28:56.787Z,5.63
2022-07-31T02:31:28.400Z,5.50
2022-07-31T02:33:55.904Z,4.83
2022-07-31T02:36:27.409Z,5.80
2022-07-31T02:38:57.463Z,5.90
2022-07-31T02:41:26.448Z,6.23
2022-07-31T02:43:54.576Z,5.10
2022-07-31T02:46:24.345Z,6.50
2022-07-31T02:48:53.959Z,5.43
2022-07-31T02:51:24.311Z,5.37
2022-07-31T02:53:52.838Z,6.00
2022-07-31T02:56:24.359Z,4.77
2022-07-31T02:58:52.935Z,5.50
2022-07-31T03:01:25.604Z,7.20
2022-07-31T03:03:55.035Z,5.27
2022-07-31T03:06:22.572Z,5.67
2022-07-31T03:08:50.229Z,6.53
2022-07-31T03:11:22.326Z,6.87
2022-07-31T03:13:50.300Z,6.87
2022-07-31T03:16:18.114Z,5.77
2022-07-31T03:18:46.961Z,6.63
2022-07-31T03:21:17.307Z,5.63
2022-07-31T03:23:47.187Z,6.23
2022-07-31T03:26:20.646Z,5.33
2022-07-31T03:28:48.653Z,5.33
2022-07-31T03:31:16.348Z,5.50
2022-07-31T03:33:44.034Z,6.40
2022-07-31T03:36:11.655Z,7.53
2022-07-31T03:38:43.935Z,6.70
2022-07-31T03:41:25.241Z,7.17
2022-07-31T03:43:53.581Z,6.50
2022-07-31T03:46:23.353Z,6.00
2022-07-31T03:48:53.249Z,7.30
2022-07-31T03:51:22.356Z,5.83
2022-07-31T03:53:52.536Z,6.80
2022-07-31T03:56:49.427Z,6.40
2022-07-31T03:59:18.690Z,5.90
2022-07-31T04:01:57.274Z,6.30
2022-07-31T04:04:44.948Z,5.70
2022-07-31T04:07:12.512Z,5.87
2022-07-31T04:09:41.414Z,6.67
2022-07-31T04:12:10.842Z,5.90
2022-07-31T04:14:38.443Z,7.80
2022-07-31T04:17:05.981Z,7.60
2022-07-31T04:19:33.993Z,6.60
2022-07-31T04:22:02.416Z,6.93
2022-07-31T04:24:30.841Z,8.20
2022-07-31T04:27:32.383Z,7.30
2022-07-31T04:29:59.935Z,6.83
2022-07-31T04:32:28.061Z,6.77
2022-07-31T04:35:01.062Z,8.57
2022-07-31T04:37:28.622Z,9.20
2022-07-31T04:39:57.268Z,9.23
2022-07-31T04:42:25.560Z,6.80
2022-07-31T04:44:55.567Z,8.13
2022-07-31T04:47:23.081Z,6.00
2022-07-31T04:49:52.386Z,9.07
2022-07-31T04:52:19.962Z,6.60
2022-07-31T04:54:49.992Z,7.50
2022-07-31T04:57:21.740Z,6.43
2022-07-31T04:59:57.974Z,6.70
2022-07-31T05:02:30.344Z,7.57
2022-07-31T05:04:58.313Z,10.40
2022-07-31T05:07:32.461Z,8.87
2022-07-31T05:10:04.438Z,8.10
2022-07-31T05:12:32.455Z,8.93
2022-07-31T05:14:59.969Z,7.63
2022-07-31T05:17:27.486Z,8.27
2022-07-31T05:20:22.677Z,8.27
2022-07-31T05:23:06.695Z,8.40
2022-07-31T05:25:51.538Z,9.10
2022-07-31T05:28:19.065Z,10.87
2022-07-31T05:30:57.880Z,8.27
2022-07-31T05:33:25.435Z,8.13
2022-07-31T05:35:54.428Z,8.53
2022-07-31T05:38:23.421Z,11.80
2022-07-31T05:41:10.740Z,12.57
2022-07-31T05:43:53.972Z,13.30
2022-07-31T05:46:25.611Z,15.40
2022-07-31T05:48:53.385Z,14.10
2022-07-31T05:51:22.610Z,14.00
2022-07-31T05:53:50.543Z,14.10
2022-07-31T05:56:36.730Z,13.30
2022-07-31T05:59:04.468Z,14.70
2022-07-31T06:01:32.310Z,15.00
2022-07-31T06:04:00.339Z,13.60
2022-07-31T06:06:34.319Z,13.60
2022-07-31T06:09:04.811Z,14.87
2022-07-31T06:11:36.850Z,13.80
2022-07-31T06:14:04.554Z,13.47
2022-07-31T06:16:53.702Z,14.43
2022-07-31T06:19:24.669Z,14.27
2022-07-31T06:21:54.628Z,14.80
2022-07-31T06:24:23.113Z,11.97
2022-07-31T06:26:52.954Z,12.73
2022-07-31T06:29:40.215Z,14.10
2022-07-31T06:32:08.657Z,12.30
2022-07-31T06:34:36.170Z,12.60
2022-07-31T06:37:05.393Z,12.47
2022-07-31T06:39:55.716Z,10.20
2022-07-31T06:42:46.250Z,9.77
2022-07-31T06:45:21.612Z,9.03
2022-07-31T06:48:27.338Z,9.10
2022-07-31T06:51:28.985Z,8.47
2022-07-31T06:53:53.535Z,7.30
2022-07-31T06:56:21.139Z,7.97
2022-07-31T06:58:48.755Z,9.33
2022-07-31T07:01:16.368Z,8.37
2022-07-31T07:03:44.102Z,8.60
2022-07-31T07:06:11.689Z,8.93
2022-07-31T07:08:39.829Z,7.57
2022-07-31T07:11:12.342Z,7.40
2022-07-31T07:13:46.440Z,6.97
2022-07-31T07:16:16.454Z,8.60
2022-07-31T07:18:44.988Z,5.97
2022-07-31T07:21:13.656Z,6.67
2022-07-31T07:23:41.796Z,7.50
2022-07-31T07:26:31.254Z,7.13
2022-07-31T07:29:02.424Z,7.57
2022-07-31T07:31:31.554Z,6.73
2022-07-31T07:34:00.452Z,6.03
2022-07-31T07:36:28.167Z,6.10
2022-07-31T07:39:03.315Z,6.57
2022-07-31T07:41:34.156Z,5.43
2022-07-31T07:44:02.563Z,4.40
2022-07-31T07:46:31.441Z,5.27
2022-07-31T07:49:02.442Z,5.00
2022-07-31T07:51:36.605Z,5.60
2022-07-31T07:54:34.475Z,5.20
2022-07-31T07:57:22.414Z,4.90
2022-07-31T08:00:11.201Z,5.20
2022-07-31T08:03:47.037Z,6.53
2022-07-31T08:05:34.566Z,5.17
2022-07-31T08:08:02.380Z,4.77
2022-07-31T08:10:48.063Z,4.57
2022-07-31T08:13:24.014Z,4.53
2022-07-31T08:16:17.445Z,4.47
2022-07-31T08:18:51.480Z,4.77
2022-07-31T08:21:19.204Z,4.50
2022-07-31T08:23:47.814Z,3.60
2022-07-31T08:26:18.267Z,3.70
2022-07-31T08:28:50.564Z,5.63
2022-07-31T08:31:21.121Z,4.23
2022-07-31T08:34:31.442Z,4.13
2022-07-31T08:36:59.765Z,4.00
2022-07-31T08:39:48.732Z,4.23
2022-07-31T08:42:16.765Z,3.53
2022-07-31T08:44:46.673Z,3.87
2022-07-31T08:47:17.904Z,3.83
2022-07-31T08:49:47.565Z,3.80
2022-07-31T08:52:19.548Z,3.90
2022-07-31T08:55:10.803Z,3.57
2022-07-31T08:57:52.844Z,3.67
2022-07-31T09:00:22.826Z,3.67
2022-07-31T09:02:50.589Z,3.90
2022-07-31T09:05:42.118Z,2.47
2022-07-31T09:08:14.771Z,2.80
2022-07-31T09:10:49.613Z,3.07
2022-07-31T09:13:19.615Z,3.30
2022-07-31T09:15:50.877Z,3.53
2022-07-31T09:18:21.370Z,3.23
2022-07-31T09:20:57.861Z,3.13
2022-07-31T09:23:26.688Z,2.70
2022-07-31T09:25:56.618Z,2.60
2022-07-31T09:28:33.814Z,2.87
2022-07-31T09:31:05.206Z,3.00
2022-07-31T09:33:55.485Z,2.67
2022-07-31T09:36:31.751Z,3.00
2022-07-31T09:39:14.542Z,2.73
2022-07-31T09:42:46.016Z,2.83
2022-07-31T09:45:22.592Z,2.07
2022-07-31T09:48:05.916Z,3.50
2022-07-31T09:50:35.038Z,2.40
2022-07-31T09:53:03.150Z,2.90
2022-07-31T09:55:33.634Z,2.80
2022-07-31T09:58:01.896Z,2.40
2022-07-31T10:00:38.360Z,2.30
2022-07-31T10:03:08.710Z,2.20
2022-07-31T10:05:38.329Z,2.87
2022-07-31T10:08:09.509Z,2.60
2022-07-31T10:10:55.942Z,2.67
2022-07-31T10:13:33.091Z,2.97
2022-07-31T10:16:01.527Z,2.73
2022-07-31T10:18:57.759Z,2.67
2022-07-31T10:21:49.677Z,2.60
2022-07-31T10:24:27.924Z,2.37
2022-07-31T10:27:01.133Z,3.20
2022-07-31T10:29:40.937Z,2.93
2022-07-31T10:32:09.818Z,2.90
2022-07-31T10:34:46.933Z,2.90
2022-07-31T10:37:34.515Z,2.90
2022-07-31T10:40:24.514Z,3.00
2022-07-31T10:43:12.404Z,2.47
2022-07-31T10:45:47.185Z,4.13
2022-07-31T10:48:37.963Z,2.57
2022-07-31T10:51:10.838Z,2.97
2022-07-31T10:54:00.976Z,2.50
2022-07-31T10:56:48.623Z,2.93
2022-07-31T10:59:42.919Z,2.80
2022-07-31T11:02:37.265Z,2.63
2022-07-31T11:05:28.278Z,3.03
2022-07-31T11:08:29.274Z,3.13
2022-07-31T11:11:05.156Z,3.10
2022-07-31T11:13:45.953Z,2.43
2022-07-31T11:16:38.469Z,2.80
2022-07-31T11:19:24.498Z,3.30
2022-07-31T11:21:54.438Z,2.90
2022-07-31T11:24:24.468Z,2.43
2022-07-31T11:26:53.956Z,3.37
2022-07-31T11:30:00.740Z,3.10
2022-07-31T11:32:25.730Z,3.67
2022-07-31T11:34:56.189Z,2.87
2022-07-31T11:37:25.789Z,3.27
2022-07-31T11:39:56.078Z,3.63
2022-07-31T11:42:26.463Z,2.60
2022-07-31T11:45:11.045Z,3.40
2022-07-31T11:48:12.293Z,2.73
2022-07-31T11:50:30.707Z,3.20
2022-07-31T11:53:03.742Z,3.03
2022-07-31T11:55:33.804Z,3.37
2022-07-31T11:58:01.354Z,2.90
2022-07-31T12:00:30.168Z,3.07
2022-07-31T12:02:58.680Z,3.07
2022-07-31T12:05:38.599Z,3.00
2022-07-31T12:08:07.800Z,3.10
2022-07-31T12:10:37.275Z,2.90
2022-07-31T12:13:04.891Z,3.33
2022-07-31T12:15:32.762Z,2.60
2022-07-31T12:18:02.755Z,3.20
2022-07-31T12:20:35.969Z,3.40
2022-07-31T12:23:06.246Z,3.50
2022-07-31T12:25:45.591Z,3.13
2022-07-31T12:28:15.558Z,5.27
2022-07-31T12:30:43.762Z,8.70
2022-07-31T12:33:12.919Z,4.67
2022-07-31T12:35:56.424Z,4.47
2022-07-31T12:38:45.321Z,4.23
2022-07-31T12:41:14.992Z,3.20
2022-07-31T12:43:51.338Z,5.30
2022-07-31T12:46:19.866Z,3.17
2022-07-31T12:48:47.525Z,3.40
2022-07-31T12:51:16.771Z,3.03
2022-07-31T12:53:44.295Z,3.93
2022-07-31T12:56:12.669Z,3.87
2022-07-31T12:58:41.554Z,5.03
2022-07-31T13:01:09.129Z,8.53
2022-07-31T13:03:45.826Z,3.30
2022-07-31T13:06:14.335Z,3.00
2022-07-31T13:08:43.669Z,3.13
2022-07-31T13:11:11.356Z,3.07
2022-07-31T13:13:38.900Z,3.20
2022-07-31T13:16:08.041Z,3.23
2022-07-31T13:18:35.911Z,2.77
2022-07-31T13:21:03.591Z,8.50
2022-07-31T13:23:31.422Z,3.50
2022-07-31T13:26:00.635Z,13.83
2022-07-31T13:28:28.147Z,3.50
2022-07-31T13:30:55.748Z,2.80
2022-07-31T13:33:24.614Z,3.70
2022-07-31T13:35:52.087Z,3.00
2022-07-31T13:38:19.741Z,3.43
2022-07-31T13:41:04.591Z,3.60
2022-07-31T13:43:32.152Z,2.93
2022-07-31T13:45:59.658Z,2.97
2022-07-31T13:48:28.555Z,3.37
2022-07-31T13:50:56.125Z,3.00
2022-07-31T13:53:23.595Z,3.00
2022-07-31T13:55:51.121Z,3.10
2022-07-31T13:58:18.778Z,2.80
2022-07-31T14:00:46.673Z,3.37
2022-07-31T14:03:18.363Z,3.27
2022-07-31T14:05:50.316Z,2.83
2022-07-31T14:08:33.216Z,3.10
2022-07-31T14:11:13.867Z,3.50
2022-07-31T14:13:42.792Z,3.37
2022-07-31T14:16:10.296Z,3.40
2022-07-31T14:18:37.823Z,3.60
2022-07-31T14:21:08.589Z,3.70
2022-07-31T14:23:40.321Z,3.20
2022-07-31T14:26:08.313Z,2.70
2022-07-31T14:28:36.129Z,3.50
2022-07-31T14:31:03.639Z,3.87
2022-07-31T14:33:31.241Z,4.67
2022-07-31T14:35:58.838Z,3.17
2022-07-31T14:38:27.954Z,3.73
2022-07-31T14:40:56.042Z,3.10
2022-07-31T14:43:23.624Z,3.37
2022-07-31T14:45:52.282Z,3.80
2022-07-31T14:48:21.070Z,3.20
2022-07-31T14:50:48.591Z,3.30
2022-07-31T14:53:16.053Z,3.20
2022-07-31T14:55:45.086Z,3.70
2022-07-31T14:58:12.568Z,3.30
2022-07-31T15:00:40.093Z,2.90
2022-07-31T15:03:09.139Z,3.50
2022-07-31T15:06:41.346Z,3.10
2022-07-31T15:08:24.202Z,2.97
2022-07-31T15:10:53.046Z,3.43
2022-07-31T15:13:20.591Z,3.43
2022-07-31T15:15:48.441Z,3.20
2022-07-31T15:18:16.079Z,2.90
2022-07-31T15:20:43.721Z,3.60
2022-07-31T15:23:11.373Z,3.43
2022-07-31T15:25:39.248Z,3.30
2022-07-31T15:28:08.111Z,2.90
2022-07-31T15:30:35.621Z,3.00
2022-07-31T15:33:03.262Z,3.37
2022-07-31T15:35:31.068Z,2.73
2022-07-31T15:37:59.401Z,3.10
2022-07-31T15:40:26.892Z,2.90
2022-07-31T15:42:54.406Z,2.93
2022-07-31T15:45:23.244Z,3.07
2022-07-31T15:47:50.787Z,3.40
2022-07-31T15:50:20.109Z,3.30
2022-07-31T15:52:48.308Z,3.00
2022-07-31T15:55:16.879Z,2.67
2022-07-31T15:57:44.736Z,2.90
2022-07-31T16:00:13.990Z,3.10
2022-07-31T16:02:45.576Z,2.57
2022-07-31T16:05:21.651Z,2.50
2022-07-31T16:08:33.096Z,2.60
2022-07-31T16:10:54.117Z,1.80
2022-07-31T16:13:22.400Z,2.20
2022-07-31T16:15:50.013Z,2.47
2022-07-31T16:18:18.935Z,2.20
2022-07-31T16:20:46.939Z,2.23
2022-07-31T16:23:14.457Z,2.50
2022-07-31T16:25:42.018Z,2.23
2022-07-31T16:28:09.532Z,2.27
2022-07-31T16:30:37.302Z,2.70
2022-07-31T16:33:04.838Z,2.70
2022-07-31T16:35:33.675Z,2.40
2022-07-31T16:38:01.197Z,3.10
2022-07-31T16:40:31.852Z,3.40
2022-07-31T16:43:01.687Z,3.20
2022-07-31T16:45:30.931Z,2.80
2022-07-31T16:47:59.296Z,2.27
2022-07-31T16:50:27.226Z,2.20
2022-07-31T16:52:56.142Z,2.43
2022-07-31T16:55:46.261Z,2.77
2022-07-31T16:58:13.644Z,2.70
2022-07-31T17:00:41.279Z,2.97
2022-07-31T17:04:01.258Z,2.63
2022-07-31T17:05:56.591Z,2.30
2022-07-31T17:08:25.505Z,2.37
2022-07-31T17:10:54.873Z,2.33
2022-07-31T17:13:22.710Z,2.40
2022-07-31T17:15:50.285Z,2.40
2022-07-31T17:18:17.861Z,2.50
2022-07-31T17:20:47.028Z,2.20
2022-07-31T17:23:14.777Z,2.47
2022-07-31T17:25:44.871Z,2.17
2022-07-31T17:28:15.375Z,2.20
2022-07-31T17:30:44.863Z,2.03
2022-07-31T17:33:12.894Z,2.57
2022-07-31T17:35:40.845Z,2.13
2022-07-31T17:38:08.408Z,2.40
2022-07-31T17:40:44.398Z,2.10
2022-07-31T17:43:13.564Z,2.43
2022-07-31T17:45:59.829Z,2.37
2022-07-31T17:48:29.305Z,1.90
2022-07-31T17:50:56.815Z,1.90
2022-07-31T17:53:31.162Z,2.03
2022-07-31T17:56:13.166Z,2.13
2022-07-31T17:58:43.226Z,2.07
2022-07-31T18:01:10.772Z,2.13
2022-07-31T18:03:38.396Z,1.97
2022-07-31T18:06:06.103Z,2.20
2022-07-31T18:08:33.758Z,2.20
2022-07-31T18:11:01.369Z,2.07
2022-07-31T18:13:29.015Z,2.00
2022-07-31T18:15:58.552Z,2.30
2022-07-31T18:18:26.125Z,2.03
2022-07-31T18:20:53.652Z,1.90
2022-07-31T18:23:22.904Z,2.00
2022-07-31T18:25:51.419Z,2.10
2022-07-31T18:28:18.959Z,2.03
2022-07-31T18:30:46.444Z,2.27
2022-07-31T18:33:17.205Z,2.20
2022-07-31T18:35:45.265Z,2.30
2022-07-31T18:38:13.070Z,2.20
2022-07-31T18:40:40.622Z,2.30
2022-07-31T18:43:09.022Z,2.27
2022-07-31T18:45:39.862Z,2.63
2022-07-31T18:48:09.623Z,2.30
2022-07-31T18:50:59.299Z,2.47
2022-07-31T18:53:26.078Z,2.10
2022-07-31T18:55:53.634Z,2.10
2022-07-31T18:58:21.203Z,2.80
2022-07-31T19:00:54.579Z,2.90
2022-07-31T19:03:23.406Z,2.13
2022-07-31T19:05:53.274Z,2.47
2022-07-31T19:08:21.224Z,2.80
2022-07-31T19:10:49.191Z,2.50
2022-07-31T19:13:18.978Z,2.67
2022-07-31T19:15:47.544Z,2.80
2022-07-31T19:18:15.592Z,2.43
2022-07-31T19:21:00.325Z,2.43
2022-07-31T19:23:34.794Z,2.30
2022-07-31T19:26:04.896Z,2.70
2022-07-31T19:28:34.110Z,2.93
2022-07-31T19:31:01.675Z,3.03
2022-07-31T19:33:29.281Z,3.17
2022-07-31T19:36:01.841Z,2.20
2022-07-31T19:38:31.135Z,2.80
2022-07-31T19:41:00.122Z,2.57
2022-07-31T19:43:27.682Z,2.77
2022-07-31T19:46:06.889Z,2.30
2022-07-31T19:48:40.398Z,2.90
2022-07-31T19:51:07.982Z,3.60
2022-07-31T19:53:35.754Z,2.50
2022-07-31T19:56:06.300Z,2.83
2022-07-31T19:58:34.601Z,2.50
2022-07-31T20:01:02.547Z,2.80
2022-07-31T20:03:30.205Z,2.53
2022-07-31T20:05:58.162Z,2.60
2022-07-31T20:08:26.082Z,3.20
2022-07-31T20:10:57.174Z,3.13
2022-07-31T20:13:27.798Z,2.67
2022-07-31T20:15:55.364Z,2.60
2022-07-31T20:18:27.981Z,3.27
2022-07-31T20:20:57.040Z,2.40
2022-07-31T20:23:24.829Z,3.00
2022-07-31T20:25:52.363Z,3.10
2022-07-31T20:28:19.896Z,2.50
2022-07-31T20:30:48.814Z,2.70
2022-07-31T20:33:16.833Z,3.00
2022-07-31T20:35:47.995Z,2.97
2022-07-31T20:38:17.559Z,2.97
2022-07-31T20:40:52.944Z,3.03
2022-07-31T20:43:21.926Z,2.80
2022-07-31T20:45:50.857Z,2.43
2022-07-31T20:48:18.576Z,3.67
2022-07-31T20:50:47.837Z,2.50
2022-07-31T20:53:16.132Z,2.60
2022-07-31T20:55:46.706Z,3.13
2022-07-31T20:58:14.312Z,3.23
2022-07-31T21:00:42.168Z,2.93
2022-07-31T21:03:11.008Z,3.80
2022-07-31T21:05:38.520Z,2.80
2022-07-31T21:08:06.276Z,3.57
2022-07-31T21:10:34.051Z,3.13
2022-07-31T21:13:01.517Z,3.17
2022-07-31T21:15:42.252Z,3.40
2022-07-31T21:18:13.758Z,3.90
2022-07-31T21:20:52.211Z,3.80
2022-07-31T21:23:22.116Z,3.13
2022-07-31T21:25:50.031Z,4.13
2022-07-31T21:28:18.171Z,4.83
2022-07-31T21:30:45.987Z,3.50
2022-07-31T21:33:15.208Z,4.47
2022-07-31T21:35:43.427Z,4.00
2022-07-31T21:38:12.213Z,4.60
2022-07-31T21:40:41.092Z,4.50
2022-07-31T21:43:09.054Z,4.77
2022-07-31T21:45:50.284Z,5.43
2022-07-31T21:48:26.727Z,4.80
2022-07-31T21:50:55.193Z,5.10
2022-07-31T21:53:23.735Z,4.90
2022-07-31T21:55:51.854Z,6.10
2022-07-31T21:58:19.613Z,5.07
2022-07-31T22:00:47.318Z,5.90
2022-07-31T22:03:15.185Z,6.47
2022-07-31T22:06:01.747Z,5.37
2022-07-31T22:08:29.304Z,6.67
2022-07-31T22:10:56.817Z,5.10
2022-07-31T22:13:24.459Z,6.27
2022-07-31T22:15:59.764Z,5.80
2022-07-31T22:18:29.686Z,5.80
2022-07-31T22:20:59.347Z,6.23
2022-07-31T22:23:27.357Z,6.03
2022-07-31T22:25:55.135Z,5.40
2022-07-31T22:28:24.542Z,5.10
2022-07-31T22:30:53.098Z,6.13
2022-07-31T22:33:20.917Z,5.37
2022-07-31T22:35:59.773Z,5.43
2022-07-31T22:38:30.923Z,5.50
2022-07-31T22:40:58.853Z,5.37
2022-07-31T22:44:12.521Z,4.90
2022-07-31T22:46:14.905Z,4.73
2022-07-31T22:48:42.556Z,4.83
2022-07-31T22:51:10.848Z,5.20
2022-07-31T22:53:43.714Z,4.60
2022-07-31T22:56:11.289Z,4.93
2022-07-31T22:58:38.828Z,4.80
2022-07-31T23:01:06.355Z,5.40
2022-07-31T23:03:33.869Z,4.60
2022-07-31T23:06:29.112Z,5.30
2022-07-31T23:08:53.713Z,4.60
2022-07-31T23:11:23.052Z,4.83
2022-07-31T23:13:50.554Z,5.27
2022-07-31T23:16:18.102Z,5.20
2022-07-31T23:18:45.610Z,4.37
2022-07-31T23:21:13.154Z,4.20
2022-07-31T23:23:40.670Z,3.90
2022-07-31T23:26:18.796Z,3.60
2022-07-31T23:28:46.401Z,3.50
2022-07-31T23:31:14.041Z,4.00
2022-07-31T23:33:41.979Z,3.53
2022-07-31T23:36:09.579Z,3.40
2022-07-31T23:38:37.521Z,3.57
2022-07-31T23:41:05.227Z,4.47
2022-07-31T23:43:33.138Z,4.43
2022-07-31T23:46:00.704Z,4.50
2022-07-31T23:48:30.067Z,6.07
2022-07-31T23:50:58.366Z,5.13
2022-07-31T23:53:25.861Z,4.20
2022-07-31T23:55:53.382Z,4.47
2022-07-31T23:58:21.263Z,4.47
